Time;durP1;ratioP1;P1;durP2;ratioP2;P2;SDS_P1;SDS_P2;PMS_P1;PMS_P2;Temp;Humidity;BMP_temperature;BMP_pressure;BME280_temperature;BME280_humidity;BME280_pressure;Samples;Min_cycle;Max_cycle;Signal;HPM_P1;HPM_P2
2023/08/08 00:01:07;;;;;;;5.38;2.70;;;16.60;99.90;;;;;;5114270;28;20055;-70
2023/08/08 00:03:34;;;;;;;7.82;3.00;;;16.50;99.90;;;;;;5109698;28;20032;-70
2023/08/08 00:06:00;;;;;;;7.53;3.25;;;16.50;99.90;;;;;;5094173;28;20016;-70
2023/08/08 00:08:25;;;;;;;4.85;3.03;;;16.60;99.90;;;;;;5096569;28;20031;-70
2023/08/08 00:10:51;;;;;;;6.38;3.20;;;16.50;99.90;;;;;;5101963;28;20042;-70
2023/08/08 00:13:17;;;;;;;7.57;3.38;;;16.50;99.90;;;;;;5101529;28;20431;-71
2023/08/08 00:15:43;;;;;;;4.38;2.90;;;16.50;99.90;;;;;;5099348;28;20049;-70
2023/08/08 00:18:09;;;;;;;4.55;2.75;;;16.50;99.90;;;;;;5098766;28;20058;-70
2023/08/08 00:20:34;;;;;;;6.65;2.97;;;16.50;99.90;;;;;;5095940;28;20031;-70
2023/08/08 00:23:00;;;;;;;5.65;2.78;;;16.40;99.90;;;;;;5114401;28;20023;-70
2023/08/08 00:25:26;;;;;;;4.40;2.83;;;16.50;99.90;;;;;;5114145;28;20027;-70
2023/08/08 00:27:52;;;;;;;6.47;3.17;;;16.50;99.90;;;;;;5113863;28;20115;-70
2023/08/08 00:30:17;;;;;;;5.80;3.10;;;16.50;99.90;;;;;;5113933;28;20027;-70
2023/08/08 00:32:43;;;;;;;4.30;2.85;;;16.40;99.90;;;;;;5113971;28;20411;-70
2023/08/08 00:35:09;;;;;;;3.78;2.92;;;16.50;99.90;;;;;;5114068;28;20112;-70
2023/08/08 00:37:35;;;;;;;8.35;2.70;;;16.50;99.90;;;;;;5112845;28;20019;-70
2023/08/08 00:40:01;;;;;;;7.07;3.10;;;16.50;99.90;;;;;;5113870;28;20077;-69
2023/08/08 00:42:26;;;;;;;9.57;3.17;;;16.40;99.90;;;;;;5113496;28;20487;-70
2023/08/08 00:44:52;;;;;;;4.80;2.60;;;16.40;99.90;;;;;;5114013;28;20106;-69
2023/08/08 00:47:18;;;;;;;6.75;2.95;;;16.50;99.90;;;;;;5112459;28;20019;-69
2023/08/08 00:49:46;;;;;;;5.88;3.15;;;16.40;99.90;;;;;;5113779;28;20023;-70
2023/08/08 00:52:12;;;;;;;4.97;3.10;;;16.40;99.90;;;;;;5113742;28;20030;-69
2023/08/08 00:54:39;;;;;;;7.55;2.85;;;16.50;99.90;;;;;;5113743;28;20027;-69
2023/08/08 00:57:05;;;;;;;5.90;2.55;;;16.50;99.90;;;;;;5113140;28;20028;-70
2023/08/08 00:59:32;;;;;;;5.00;2.92;;;16.50;99.90;;;;;;5113287;28;20062;-69
2023/08/08 01:01:58;;;;;;;5.75;3.40;;;16.50;99.90;;;;;;5113757;28;20103;-69
2023/08/08 01:04:26;;;;;;;5.78;3.53;;;16.50;99.90;;;;;;5112268;28;20441;-69
2023/08/08 01:07:18;;;;;;;7.18;3.00;;;16.50;99.90;;;;;;5112809;28;20031;-70
2023/08/08 01:10:07;;;;;;;8.10;2.92;;;16.50;99.90;;;;;;5113181;28;20035;-69
2023/08/08 01:12:44;;;;;;;11.57;2.72;;;16.50;99.90;;;;;;5092940;28;20533;-70
2023/08/08 01:15:11;;;;;;;5.75;2.88;;;16.50;99.90;;;;;;5113301;28;20027;-69
2023/08/08 01:17:38;;;;;;;6.55;2.75;;;16.50;99.90;;;;;;5113045;28;20026;-70
2023/08/08 01:20:05;;;;;;;5.63;2.85;;;16.40;99.90;;;;;;5113410;28;20034;-70
2023/08/08 01:22:50;;;;;;;7.57;3.17;;;16.50;99.90;;;;;;5094541;28;20028;-69
2023/08/08 01:25:16;;;;;;;7.40;2.65;;;16.40;99.90;;;;;;5092851;28;20051;-69
2023/08/08 01:27:43;;;;;;;4.70;2.90;;;16.40;99.90;;;;;;5110444;28;20024;-70
2023/08/08 01:30:09;;;;;;;5.68;2.83;;;16.50;99.90;;;;;;5112552;28;20511;-69
2023/08/08 01:32:34;;;;;;;4.70;2.97;;;16.50;99.90;;;;;;5112810;28;20020;-69
2023/08/08 01:35:00;;;;;;;6.82;3.33;;;16.50;99.90;;;;;;5112977;28;20526;-70
2023/08/08 01:37:34;;;;;;;7.20;3.13;;;16.40;99.90;;;;;;5111571;28;20526;-70
2023/08/08 01:40:01;;;;;;;7.20;3.03;;;16.40;99.90;;;;;;5112898;28;20020;-69
2023/08/08 01:42:28;;;;;;;4.80;3.08;;;16.30;99.90;;;;;;5111898;28;20027;-69
2023/08/08 01:44:56;;;;;;;9.57;3.50;;;16.30;99.90;;;;;;5113016;28;20028;-69
2023/08/08 01:47:22;;;;;;;5.85;3.50;;;16.40;99.90;;;;;;5112588;28;20479;-70
2023/08/08 01:49:47;;;;;;;8.40;3.13;;;16.30;99.90;;;;;;5112726;28;20034;-70
2023/08/08 01:52:13;;;;;;;9.60;3.30;;;16.30;99.90;;;;;;5112690;28;20042;-69
2023/08/08 01:54:40;;;;;;;6.13;3.63;;;16.30;99.90;;;;;;5112251;28;20024;-70
2023/08/08 01:57:05;;;;;;;9.80;3.30;;;16.30;99.90;;;;;;5110705;28;20490;-70
2023/08/08 01:59:31;;;;;;;5.63;3.25;;;16.20;99.90;;;;;;5112141;28;20035;-69
2023/08/08 02:01:56;;;;;;;10.52;3.00;;;16.20;99.90;;;;;;5112208;28;20494;-69
2023/08/08 02:04:22;;;;;;;9.63;3.38;;;16.30;99.90;;;;;;5112485;28;20444;-70
2023/08/08 02:06:48;;;;;;;9.40;3.17;;;16.30;99.90;;;;;;5112549;28;20499;-69
2023/08/08 02:09:15;;;;;;;7.63;3.53;;;16.20;99.90;;;;;;5112188;28;20425;-70
2023/08/08 02:11:41;;;;;;;7.57;3.38;;;16.20;99.90;;;;;;5112338;28;20106;-70
2023/08/08 02:14:07;;;;;;;7.55;3.65;;;16.30;99.90;;;;;;5112830;28;20023;-70
2023/08/08 02:16:34;;;;;;;8.25;3.50;;;16.20;99.90;;;;;;5112033;28;20040;-70
2023/08/08 02:19:00;;;;;;;8.70;3.45;;;16.20;99.90;;;;;;5112020;28;20016;-70
2023/08/08 02:21:26;;;;;;;13.20;3.70;;;16.20;99.90;;;;;;5112537;28;20081;-70
2023/08/08 02:23:51;;;;;;;7.80;3.30;;;16.10;99.90;;;;;;5112032;28;20028;-71
2023/08/08 02:26:18;;;;;;;8.40;3.65;;;16.10;99.90;;;;;;5112221;28;20074;-70
2023/08/08 02:28:44;;;;;;;6.47;3.25;;;16.10;99.90;;;;;;5112076;28;20038;-70
2023/08/08 02:31:10;;;;;;;8.00;3.70;;;16.10;99.90;;;;;;5112346;28;20467;-70
2023/08/08 02:33:36;;;;;;;11.52;4.13;;;16.10;99.90;;;;;;5112436;28;20068;-70
2023/08/08 02:36:01;;;;;;;7.22;3.53;;;16.10;99.90;;;;;;5112482;28;20472;-70
2023/08/08 02:38:27;;;;;;;7.95;3.58;;;16.10;99.90;;;;;;5111852;28;20028;-70
2023/08/08 02:40:53;;;;;;;10.30;4.25;;;16.00;99.90;;;;;;5112668;28;20066;-70
2023/08/08 02:43:19;;;;;;;10.75;3.58;;;16.00;99.90;;;;;;5111664;28;20043;-71
2023/08/08 02:45:44;;;;;;;8.45;3.75;;;16.00;99.90;;;;;;5112283;28;20035;-70
2023/08/08 02:48:10;;;;;;;10.75;3.55;;;16.00;99.90;;;;;;5112161;28;20036;-70
2023/08/08 02:50:36;;;;;;;10.80;3.88;;;16.00;99.90;;;;;;5112278;28;20028;-70
2023/08/08 02:53:02;;;;;;;13.20;4.03;;;16.10;99.90;;;;;;5112137;28;20095;-70
2023/08/08 02:55:27;;;;;;;11.25;4.00;;;16.00;99.90;;;;;;5110813;28;20203;-70
2023/08/08 02:57:53;;;;;;;9.43;3.92;;;16.00;99.90;;;;;;5112084;28;20046;-70
2023/08/08 03:00:19;;;;;;;9.25;3.90;;;16.00;99.90;;;;;;5111830;28;20094;-69
2023/08/08 03:02:44;;;;;;;12.48;4.00;;;16.00;99.90;;;;;;5112133;28;20476;-69
2023/08/08 03:05:10;;;;;;;17.17;4.40;;;16.00;99.90;;;;;;5112557;28;20055;-70
2023/08/08 03:07:36;;;;;;;13.18;4.30;;;16.00;99.90;;;;;;5115705;28;20700;-70
2023/08/08 03:10:02;;;;;;;18.33;4.57;;;16.00;99.90;;;;;;5114913;28;20023;-69
2023/08/08 03:12:27;;;;;;;10.57;4.45;;;16.00;99.90;;;;;;5115561;28;20028;-71
2023/08/08 03:14:53;;;;;;;8.73;4.18;;;16.00;99.90;;;;;;5115514;28;20027;-70
2023/08/08 03:17:19;;;;;;;16.38;4.72;;;16.00;99.90;;;;;;5115699;28;20103;-71
2023/08/08 03:19:45;;;;;;;11.77;4.05;;;16.10;99.90;;;;;;5115533;28;20123;-70
2023/08/08 03:22:10;;;;;;;12.48;4.43;;;16.00;99.90;;;;;;5115568;28;20578;-69
2023/08/08 03:24:36;;;;;;;16.05;4.63;;;16.10;99.90;;;;;;5115502;28;20019;-69
2023/08/08 03:27:02;;;;;;;10.75;4.72;;;16.00;99.90;;;;;;5115670;28;20089;-70
2023/08/08 03:29:27;;;;;;;18.55;4.97;;;16.00;99.90;;;;;;5114638;28;20028;-69
2023/08/08 03:31:53;;;;;;;8.65;4.43;;;15.90;99.90;;;;;;5115694;28;20020;-69
2023/08/08 03:34:19;;;;;;;12.98;4.05;;;16.00;99.90;;;;;;5115417;28;20028;-70
2023/08/08 03:36:45;;;;;;;13.85;4.10;;;16.00;99.90;;;;;;5113473;28;20451;-69
2023/08/08 03:39:11;;;;;;;9.15;4.65;;;16.00;99.90;;;;;;5114818;28;20031;-70
2023/08/08 03:41:37;;;;;;;8.40;4.70;;;16.00;99.90;;;;;;5115333;28;20027;-70
2023/08/08 03:44:03;;;;;;;19.48;5.75;;;16.10;99.90;;;;;;5115120;28;20453;-70
2023/08/08 03:46:29;;;;;;;17.33;4.75;;;16.00;99.90;;;;;;5114770;28;20031;-70
2023/08/08 03:48:54;;;;;;;13.32;4.25;;;16.00;99.90;;;;;;5115211;28;20026;-70
2023/08/08 03:51:20;;;;;;;11.43;4.70;;;16.00;99.90;;;;;;5115006;28;20107;-70
2023/08/08 03:53:46;;;;;;;9.55;4.20;;;16.10;99.90;;;;;;5113503;28;20085;-70
2023/08/08 03:56:11;;;;;;;17.88;5.18;;;16.10;99.90;;;;;;5113692;28;20448;-70
2023/08/08 03:58:38;;;;;;;12.73;4.93;;;16.00;99.90;;;;;;5113457;28;20061;-70
2023/08/08 04:01:04;;;;;;;16.35;4.70;;;16.10;99.90;;;;;;5115091;28;20111;-70
2023/08/08 04:03:29;;;;;;;16.73;5.38;;;16.00;99.90;;;;;;5114723;28;20102;-70
2023/08/08 04:05:55;;;;;;;14.02;5.72;;;16.00;99.90;;;;;;5114205;28;20038;-70
2023/08/08 04:08:21;;;;;;;17.08;5.90;;;16.00;99.90;;;;;;5114179;28;20447;-70
2023/08/08 04:10:47;;;;;;;16.65;5.85;;;16.00;99.90;;;;;;5114971;28;20027;-69
2023/08/08 04:13:12;;;;;;;12.00;5.07;;;15.90;99.90;;;;;;5114674;28;20027;-69
2023/08/08 04:15:38;;;;;;;17.95;5.50;;;16.00;99.90;;;;;;5114661;28;20395;-70
2023/08/08 04:18:06;;;;;;;14.85;5.00;;;16.00;99.90;;;;;;5114037;28;20035;-70
2023/08/08 04:20:34;;;;;;;15.38;5.32;;;16.00;99.90;;;;;;5114054;28;20022;-70
2023/08/08 04:23:00;;;;;;;11.15;5.05;;;15.90;99.90;;;;;;5113311;28;20103;-70
2023/08/08 04:25:27;;;;;;;16.23;5.80;;;15.90;99.90;;;;;;5114349;28;20085;-70
2023/08/08 04:27:53;;;;;;;22.95;6.70;;;16.00;99.90;;;;;;5114099;28;20030;-70
2023/08/08 04:30:18;;;;;;;11.77;5.68;;;16.00;99.90;;;;;;5113955;28;20024;-69
2023/08/08 04:32:45;;;;;;;12.10;5.22;;;16.00;99.90;;;;;;5114168;28;20035;-70
2023/08/08 04:35:11;;;;;;;16.45;5.53;;;15.90;99.90;;;;;;5112670;28;20102;-70
2023/08/08 04:37:36;;;;;;;15.32;5.55;;;15.90;99.90;;;;;;5104822;28;20537;-70
2023/08/08 04:40:03;;;;;;;14.63;5.47;;;15.90;99.90;;;;;;5093674;28;20043;-69
2023/08/08 04:42:29;;;;;;;15.02;5.72;;;15.90;99.90;;;;;;5093565;28;20032;-69
2023/08/08 04:44:54;;;;;;;10.93;4.70;;;15.90;99.90;;;;;;5093509;28;20039;-69
2023/08/08 04:47:20;;;;;;;11.45;5.15;;;15.90;99.90;;;;;;5093407;28;20047;-70
2023/08/08 04:49:46;;;;;;;19.55;5.30;;;15.90;99.90;;;;;;5091789;28;20012;-70
2023/08/08 04:52:11;;;;;;;14.30;6.00;;;15.90;99.90;;;;;;5093156;28;20027;-69
2023/08/08 04:54:37;;;;;;;19.75;5.80;;;15.90;99.90;;;;;;5093548;28;20020;-69
2023/08/08 04:57:03;;;;;;;12.23;5.20;;;15.90;99.90;;;;;;5091974;28;20024;-70
2023/08/08 04:59:29;;;;;;;19.45;5.80;;;15.90;99.90;;;;;;5093054;28;20028;-70
2023/08/08 05:01:54;;;;;;;15.73;6.28;;;15.90;99.90;;;;;;5093337;28;20085;-69
2023/08/08 05:04:20;;;;;;;15.95;5.72;;;15.90;99.90;;;;;;5093189;28;20103;-70
2023/08/08 05:06:46;;;;;;;13.48;6.07;;;15.80;99.90;;;;;;5092987;28;20431;-69
2023/08/08 05:09:12;;;;;;;13.20;5.55;;;15.80;99.90;;;;;;5101132;28;20031;-70
2023/08/08 05:11:37;;;;;;;11.40;5.55;;;15.80;99.90;;;;;;5101980;28;20055;-69
2023/08/08 05:14:03;;;;;;;15.73;6.07;;;15.80;99.90;;;;;;5095503;28;20028;-70
2023/08/08 05:16:29;;;;;;;15.88;5.88;;;15.90;99.90;;;;;;5101989;28;20389;-70
2023/08/08 05:18:54;;;;;;;17.48;6.50;;;15.80;99.90;;;;;;5092840;28;20080;-70
2023/08/08 05:21:21;;;;;;;14.23;5.60;;;15.90;99.90;;;;;;5093037;28;20097;-69
2023/08/08 05:23:47;;;;;;;16.23;6.30;;;15.90;99.90;;;;;;5092916;28;20028;-70
2023/08/08 05:26:14;;;;;;;19.35;5.60;;;15.90;99.90;;;;;;5092607;28;20559;-69
2023/08/08 05:28:40;;;;;;;14.32;5.47;;;15.90;99.90;;;;;;5091817;28;20465;-69
2023/08/08 05:31:06;;;;;;;10.13;5.63;;;15.90;99.90;;;;;;5092629;28;20028;-69
2023/08/08 05:33:31;;;;;;;16.17;5.82;;;15.90;99.90;;;;;;5092560;28;20094;-69
2023/08/08 05:35:57;;;;;;;17.23;5.68;;;15.90;99.90;;;;;;5092420;28;20038;-69
2023/08/08 05:38:23;;;;;;;14.40;5.68;;;16.00;99.90;;;;;;5092327;28;20066;-70
2023/08/08 05:40:48;;;;;;;12.00;4.78;;;16.00;99.90;;;;;;5092570;28;20085;-69
2023/08/08 05:43:18;;;;;;;16.90;5.40;;;16.00;99.90;;;;;;5092062;28;20398;-69
2023/08/08 05:45:47;;;;;;;17.42;5.43;;;16.00;99.90;;;;;;5091192;28;20039;-69
2023/08/08 05:48:12;;;;;;;17.20;5.75;;;16.10;99.90;;;;;;5091792;28;20036;-69
2023/08/08 05:50:39;;;;;;;24.35;5.93;;;16.10;99.90;;;;;;5090983;28;20027;-69
2023/08/08 05:53:05;;;;;;;17.65;5.35;;;16.10;99.90;;;;;;5092513;28;20027;-69
2023/08/08 05:55:31;;;;;;;52.83;8.02;;;16.10;99.90;;;;;;5092719;28;20469;-70
2023/08/08 05:57:56;;;;;;;117.00;13.13;;;16.10;99.90;;;;;;5099370;28;20050;-69
2023/08/08 06:00:22;;;;;;;25.80;6.60;;;16.10;99.90;;;;;;5095573;28;20161;-69
2023/08/08 06:02:48;;;;;;;20.13;6.03;;;16.20;99.90;;;;;;5091665;28;20040;-69
2023/08/08 06:05:14;;;;;;;18.08;5.43;;;16.30;99.90;;;;;;5093068;28;20032;-69
2023/08/08 06:07:39;;;;;;;15.68;5.63;;;16.30;99.90;;;;;;5108800;28;20031;-69
2023/08/08 06:10:08;;;;;;;16.83;5.57;;;16.40;99.90;;;;;;5112506;28;20478;-69
2023/08/08 06:12:33;;;;;;;18.23;7.13;;;16.40;99.90;;;;;;5099451;28;20032;-69
2023/08/08 06:14:59;;;;;;;12.43;4.85;;;16.40;99.90;;;;;;5092129;28;20030;-70
2023/08/08 06:17:25;;;;;;;16.45;5.63;;;16.60;99.90;;;;;;5100201;28;20035;-70
2023/08/08 06:19:50;;;;;;;15.40;5.40;;;16.50;99.90;;;;;;5092242;28;20016;-69
2023/08/08 06:22:17;;;;;;;18.70;5.40;;;16.60;99.90;;;;;;5092309;28;20477;-69
2023/08/08 06:24:42;;;;;;;21.13;4.97;;;16.70;99.90;;;;;;5091931;28;20017;-70
2023/08/08 06:27:08;;;;;;;14.00;4.90;;;16.70;99.90;;;;;;5109772;28;20031;-69
2023/08/08 06:29:33;;;;;;;19.30;4.70;;;16.90;99.90;;;;;;5111672;28;20024;-69
2023/08/08 06:31:59;;;;;;;12.43;5.45;;;16.80;99.90;;;;;;5111378;28;20854;-69
2023/08/08 06:34:25;;;;;;;10.02;4.45;;;16.90;99.90;;;;;;5112179;28;20020;-70
2023/08/08 06:36:50;;;;;;;16.13;5.25;;;16.80;99.90;;;;;;5112388;28;20387;-72
2023/08/08 06:39:19;;;;;;;15.05;5.00;;;16.90;99.90;;;;;;5111884;28;20024;-70
2023/08/08 06:41:44;;;;;;;64.18;11.48;;;16.90;99.90;;;;;;5108875;28;20119;-70
2023/08/08 06:44:10;;;;;;;28.05;6.07;;;16.90;99.90;;;;;;5096011;28;20525;-71
2023/08/08 06:46:36;;;;;;;26.35;6.65;;;16.90;99.90;;;;;;5095874;28;20032;-70
2023/08/08 06:49:02;;;;;;;16.83;5.30;;;17.00;99.90;;;;;;5115459;28;20031;-71
2023/08/08 06:51:27;;;;;;;21.65;6.18;;;17.10;99.90;;;;;;5116123;28;20055;-71
2023/08/08 06:53:54;;;;;;;12.68;4.88;;;17.10;99.90;;;;;;5116090;28;20490;-70
2023/08/08 06:56:19;;;;;;;13.20;5.13;;;17.10;99.90;;;;;;5110000;27;20426;-70
2023/08/08 06:58:45;;;;;;;13.18;5.45;;;17.00;99.90;;;;;;5105758;28;20035;-71
2023/08/08 07:01:11;;;;;;;18.08;5.03;;;17.10;99.90;;;;;;5115230;28;20241;-71
2023/08/08 07:03:36;;;;;;;15.70;4.65;;;17.10;99.90;;;;;;5101772;28;20024;-71
2023/08/08 07:06:03;;;;;;;17.67;5.32;;;17.20;99.90;;;;;;5095242;28;20036;-70
2023/08/08 07:08:29;;;;;;;15.27;6.00;;;17.30;99.90;;;;;;5100082;28;20020;-71
2023/08/08 07:10:57;;;;;;;16.60;4.97;;;17.30;99.90;;;;;;5113923;28;20024;-71
2023/08/08 07:13:22;;;;;;;20.05;6.03;;;17.30;99.90;;;;;;5113438;28;20024;-71
2023/08/08 07:15:49;;;;;;;16.13;5.45;;;17.40;99.90;;;;;;5103902;28;20030;-71
2023/08/08 07:18:15;;;;;;;22.00;5.38;;;17.40;99.90;;;;;;5095406;28;20016;-71
2023/08/08 07:20:40;;;;;;;14.25;5.30;;;17.60;99.90;;;;;;5095318;28;20044;-72
2023/08/08 07:23:06;;;;;;;13.68;5.28;;;17.70;99.90;;;;;;5096764;28;20063;-72
2023/08/08 07:25:32;;;;;;;17.27;6.45;;;17.70;99.90;;;;;;5114332;28;20092;-72
2023/08/08 07:27:58;;;;;;;12.25;4.70;;;17.70;99.90;;;;;;5115451;28;20092;-72
2023/08/08 07:30:25;;;;;;;14.25;4.97;;;17.80;99.90;;;;;;5109441;27;20030;-71
2023/08/08 07:32:50;;;;;;;23.00;6.18;;;17.90;99.90;;;;;;5094946;28;20023;-71
2023/08/08 07:35:17;;;;;;;18.80;5.55;;;17.80;99.90;;;;;;5095047;28;20031;-72
2023/08/08 07:37:43;;;;;;;20.95;6.10;;;17.90;99.90;;;;;;5095063;28;20044;-71
2023/08/08 07:40:19;;;;;;;14.38;6.00;;;17.90;99.90;;;;;;5099109;28;20040;-70
2023/08/08 07:42:49;;;;;;;12.18;5.78;;;18.00;99.90;;;;;;5100346;28;20032;-71
2023/08/08 07:45:15;;;;;;;15.90;5.93;;;17.90;99.90;;;;;;5094645;28;20047;-71
2023/08/08 07:47:41;;;;;;;15.77;4.75;;;18.00;99.90;;;;;;5103064;28;20042;-71
2023/08/08 07:50:10;;;;;;;93.97;16.10;;;18.00;99.90;;;;;;5112378;28;20436;-71
2023/08/08 07:52:37;;;;;;;16.35;5.05;;;18.10;99.90;;;;;;5093818;28;20024;-71
2023/08/08 07:55:03;;;;;;;13.07;4.43;;;18.20;99.90;;;;;;5096463;28;20020;-71
2023/08/08 07:57:35;;;;;;;18.42;5.70;;;18.30;99.90;;;;;;5114296;28;20031;-71
2023/08/08 08:00:13;;;;;;;19.90;5.22;;;18.30;99.90;;;;;;5113659;27;20028;-71
2023/08/08 08:02:41;;;;;;;17.30;4.85;;;18.30;99.90;;;;;;5112499;28;20106;-71
2023/08/08 08:05:07;;;;;;;17.45;5.88;;;18.40;99.90;;;;;;5114778;28;20599;-71
2023/08/08 08:07:35;;;;;;;15.93;4.75;;;18.40;99.90;;;;;;5109881;28;20480;-71
2023/08/08 08:10:02;;;;;;;11.10;4.32;;;18.40;99.90;;;;;;5112763;28;20019;-71
2023/08/08 08:12:29;;;;;;;11.93;4.05;;;18.50;99.90;;;;;;5104013;28;20103;-71
2023/08/08 08:14:55;;;;;;;16.45;5.40;;;18.60;99.90;;;;;;5114788;28;20035;-71
2023/08/08 08:17:20;;;;;;;13.65;4.57;;;18.60;99.90;;;;;;5105607;28;20032;-71
2023/08/08 08:19:46;;;;;;;12.00;4.10;;;18.60;99.90;;;;;;5094179;28;20024;-71
2023/08/08 08:22:12;;;;;;;13.82;4.30;;;18.60;99.90;;;;;;5112668;28;20101;-71
2023/08/08 08:24:38;;;;;;;12.10;4.57;;;18.80;99.90;;;;;;5113072;28;20026;-71
2023/08/08 08:27:03;;;;;;;12.68;4.13;;;18.90;99.90;;;;;;5113870;28;20116;-71
2023/08/08 08:29:30;;;;;;;10.52;3.75;;;19.00;99.90;;;;;;5114396;28;20027;-71
2023/08/08 08:31:56;;;;;;;12.43;3.70;;;18.90;99.90;;;;;;5112644;28;20027;-72
2023/08/08 08:34:22;;;;;;;175.38;22.92;;;19.00;99.90;;;;;;5113892;28;20115;-71
2023/08/08 08:36:47;;;;;;;12.50;4.22;;;19.10;99.90;;;;;;5098820;27;20031;-71
2023/08/08 08:39:13;;;;;;;14.02;3.50;;;19.10;99.90;;;;;;5093697;28;20035;-73
2023/08/08 08:41:39;;;;;;;11.93;3.30;;;19.10;99.90;;;;;;5093063;28;20040;-70
2023/08/08 08:44:07;;;;;;;14.38;3.10;;;19.20;99.90;;;;;;5093870;28;20032;-72
2023/08/08 08:46:36;;;;;;;11.57;4.05;;;19.20;99.90;;;;;;5093252;28;20116;-73
2023/08/08 08:49:04;;;;;;;10.27;3.63;;;19.20;99.90;;;;;;5093046;28;20028;-71
2023/08/08 08:51:30;;;;;;;12.40;3.63;;;19.20;99.90;;;;;;5093090;28;20052;-72
2023/08/08 08:53:58;;;;;;;14.50;3.47;;;19.30;99.90;;;;;;5091928;28;20467;-71
2023/08/08 08:56:24;;;;;;;7.97;3.35;;;19.30;99.90;;;;;;5092928;28;20476;-72
2023/08/08 08:58:51;;;;;;;7.85;3.38;;;19.30;99.90;;;;;;5093006;28;20046;-73
2023/08/08 09:01:18;;;;;;;10.38;3.83;;;19.30;99.90;;;;;;5104504;28;20039;-73
2023/08/08 09:03:45;;;;;;;11.23;3.47;;;19.30;99.90;;;;;;5113159;28;20170;-72
2023/08/08 09:06:12;;;;;;;11.25;3.55;;;19.30;99.90;;;;;;5113211;28;20032;-72
2023/08/08 09:08:37;;;;;;;11.32;3.28;;;19.30;99.90;;;;;;5112054;28;20024;-72
2023/08/08 09:11:03;;;;;;;10.30;3.40;;;19.30;99.90;;;;;;5113689;28;20039;-72
2023/08/08 09:13:37;;;;;;;8.45;3.13;;;19.20;99.90;;;;;;5113327;27;20518;-71
2023/08/08 09:16:06;;;;;;;15.77;3.40;;;19.20;99.90;;;;;;5113402;28;20058;-71
2023/08/08 09:18:32;;;;;;;14.85;3.83;;;19.10;99.90;;;;;;5112869;28;20020;-72
2023/08/08 09:20:58;;;;;;;7.68;3.00;;;19.10;99.90;;;;;;5094834;28;20065;-71
2023/08/08 09:23:24;;;;;;;13.18;3.60;;;19.20;99.90;;;;;;5092942;28;20020;-72
2023/08/08 09:25:50;;;;;;;12.55;3.10;;;19.20;99.90;;;;;;5092489;28;20035;-71
2023/08/08 09:28:15;;;;;;;22.63;4.57;;;19.20;99.90;;;;;;5092351;28;20085;-73
2023/08/08 09:30:42;;;;;;;33.15;6.15;;;19.20;99.90;;;;;;5108715;28;20012;-72
2023/08/08 09:33:08;;;;;;;41.65;7.78;;;19.10;99.90;;;;;;5095504;28;20017;-73
2023/08/08 09:35:34;;;;;;;189.23;23.25;;;19.20;99.90;;;;;;5092820;28;20051;-72
2023/08/08 09:38:00;;;;;;;19.25;5.10;;;19.20;99.90;;;;;;5092637;28;20055;-72
2023/08/08 09:40:25;;;;;;;13.00;3.80;;;19.10;99.90;;;;;;5092328;28;20032;-72
2023/08/08 09:42:56;;;;;;;7.95;2.83;;;19.10;99.90;;;;;;5092254;28;20114;-72
2023/08/08 09:45:23;;;;;;;8.75;3.10;;;19.00;99.90;;;;;;5092202;28;20024;-71
2023/08/08 09:47:52;;;;;;;11.23;2.63;;;19.00;99.90;;;;;;5092131;28;20032;-72
2023/08/08 09:50:18;;;;;;;9.30;2.92;;;19.00;99.90;;;;;;5092484;28;20008;-71
2023/08/08 09:52:45;;;;;;;10.48;3.08;;;19.10;99.90;;;;;;5112840;28;20028;-72
2023/08/08 09:55:11;;;;;;;9.30;3.17;;;19.10;99.90;;;;;;5111096;28;20016;-72
2023/08/08 09:57:39;;;;;;;11.80;3.33;;;19.10;99.90;;;;;;5112965;28;20058;-72
2023/08/08 10:00:10;;;;;;;11.07;3.28;;;19.20;99.90;;;;;;5112395;28;20032;-73
2023/08/08 10:02:36;;;;;;;8.75;3.05;;;19.30;99.90;;;;;;5111258;28;20464;-72
2023/08/08 10:05:04;;;;;;;10.30;3.15;;;19.40;99.90;;;;;;5112290;28;20035;-71
2023/08/08 10:07:30;;;;;;;11.95;3.03;;;19.50;99.90;;;;;;5110981;28;20408;-71
2023/08/08 10:09:57;;;;;;;13.75;3.25;;;19.50;99.90;;;;;;5102548;28;20032;-72
2023/08/08 10:12:25;;;;;;;17.20;3.45;;;19.60;99.90;;;;;;5092117;28;20028;-71
2023/08/08 10:14:51;;;;;;;9.20;2.67;;;19.70;99.90;;;;;;5091554;28;20500;-72
2023/08/08 10:17:18;;;;;;;12.60;3.15;;;19.80;99.90;;;;;;5092220;28;20031;-72
2023/08/08 10:20:17;;;;;;;7.90;3.72;;;19.70;99.90;;;;;;5091925;28;20392;-72
2023/08/08 10:22:46;;;;;;;4.53;2.53;;;19.50;99.90;;;;;;5090041;28;20032;-72
2023/08/08 10:25:27;;;;;;;7.32;2.58;;;19.30;99.90;;;;;;5092173;28;20074;-73
2023/08/08 10:28:13;;;;;;;6.25;2.47;;;19.10;99.90;;;;;;5091370;28;20044;-72
2023/08/08 10:30:50;;;;;;;5.50;2.50;;;19.10;99.90;;;;;;5091484;28;20089;-72
2023/08/08 10:33:24;;;;;;;7.18;2.80;;;19.10;99.90;;;;;;5091419;28;20024;-72
2023/08/08 10:35:56;;;;;;;8.70;2.92;;;19.20;99.90;;;;;;5090673;28;20027;-71
2023/08/08 10:38:23;;;;;;;6.63;3.03;;;19.20;99.90;;;;;;5091648;28;20038;-72
2023/08/08 10:40:59;;;;;;;6.47;2.63;;;19.30;99.90;;;;;;5092078;28;20032;-72
2023/08/08 10:43:29;;;;;;;9.77;2.88;;;19.40;99.90;;;;;;5098224;28;20040;-72
2023/08/08 10:46:00;;;;;;;7.55;2.90;;;19.50;99.90;;;;;;5100797;28;20662;-73
2023/08/08 10:48:26;;;;;;;8.05;4.00;;;19.60;99.90;;;;;;5098564;28;20032;-72
2023/08/08 10:50:56;;;;;;;5.68;2.95;;;19.80;99.90;;;;;;5103096;28;20020;-71
2023/08/08 10:53:28;;;;;;;9.35;3.60;;;19.90;99.90;;;;;;5103472;28;20119;-72
2023/08/08 10:55:58;;;;;;;;;;;20.00;99.90;;;;;;5091765;28;20022;-71
2023/08/08 10:58:38;;;;;;;6.93;3.22;;;20.20;99.90;;;;;;5091540;28;20403;-73
2023/08/08 11:01:07;;;;;;;10.77;3.38;;;20.30;99.90;;;;;;5091565;28;20016;-72
2023/08/08 11:03:39;;;;;;;9.10;3.20;;;20.30;99.90;;;;;;5091757;28;20089;-72
2023/08/08 11:06:07;;;;;;;6.28;2.85;;;20.30;99.90;;;;;;5091408;28;20408;-72
2023/08/08 11:08:33;;;;;;;8.77;3.55;;;20.30;99.90;;;;;;5098078;28;20028;-72
2023/08/08 11:10:59;;;;;;;4.95;2.55;;;20.40;99.90;;;;;;5111865;28;20031;-73
2023/08/08 11:13:26;;;;;;;178.70;21.92;;;20.60;99.90;;;;;;5111883;28;20114;-71
2023/08/08 11:15:52;;;;;;;20.50;4.63;;;20.60;99.90;;;;;;5111953;28;20032;-72
2023/08/08 11:18:17;;;;;;;5.97;2.42;;;20.50;99.90;;;;;;5110686;28;20053;-72
2023/08/08 11:20:43;;;;;;;7.30;2.55;;;20.30;99.90;;;;;;5111613;28;20023;-71
2023/08/08 11:23:10;;;;;;;7.50;3.10;;;20.20;99.90;;;;;;5111961;28;20433;-71
2023/08/08 11:25:36;;;;;;;7.97;2.85;;;20.10;99.90;;;;;;5109930;28;20361;-71
2023/08/08 11:28:03;;;;;;;8.68;2.40;;;20.20;99.90;;;;;;5107483;28;20503;-72
2023/08/08 11:30:32;;;;;;;14.98;3.20;;;20.20;99.90;;;;;;5113804;28;20028;-72
2023/08/08 11:32:59;;;;;;;132.55;18.83;;;20.40;99.90;;;;;;5113531;28;20031;-72
2023/08/08 11:35:25;;;;;;;11.60;3.47;;;20.80;99.90;;;;;;5114835;28;20020;-73
2023/08/08 11:37:58;;;;;;;7.05;2.65;;;21.00;99.90;;;;;;5115415;27;20100;-72
2023/08/08 11:40:27;;;;;;;5.68;2.83;;;21.20;99.90;;;;;;5115047;28;20075;-73
2023/08/08 11:42:55;;;;;;;4.53;2.33;;;21.20;99.90;;;;;;5115625;28;20024;-72
2023/08/08 11:45:21;;;;;;;4.85;2.90;;;21.20;99.90;;;;;;5113561;28;20081;-73
2023/08/08 11:47:51;;;;;;;4.63;2.40;;;21.00;99.90;;;;;;5094238;27;20431;-72
2023/08/08 11:50:19;;;;;;;5.28;2.20;;;20.80;99.90;;;;;;5094477;28;20047;-72
2023/08/08 11:52:46;;;;;;;7.18;2.65;;;20.70;99.90;;;;;;5094709;28;20023;-72
2023/08/08 11:55:12;;;;;;;4.90;2.20;;;20.60;99.90;;;;;;5094685;28;20024;-72
2023/08/08 11:57:39;;;;;;;5.07;2.22;;;20.50;99.90;;;;;;5094359;28;20023;-72
2023/08/08 12:00:12;;;;;;;2.65;2.00;;;20.40;99.90;;;;;;5093569;28;20031;-72
2023/08/08 12:02:39;;;;;;;4.65;1.70;;;20.20;99.90;;;;;;5094717;28;20508;-72
2023/08/08 12:05:16;;;;;;;6.85;2.03;;;20.20;99.90;;;;;;5094083;28;20020;-72
2023/08/08 12:07:44;;;;;;;5.10;1.77;;;20.20;99.90;;;;;;5097657;28;20032;-73
2023/08/08 12:10:19;;;;;;;7.82;1.80;;;20.70;99.90;;;;;;5114410;27;20019;-72
2023/08/08 12:12:46;;;;;;;3.95;1.95;;;21.10;99.90;;;;;;5114797;28;20035;-71
2023/08/08 12:15:12;;;;;;;4.93;2.40;;;21.30;99.90;;;;;;5114631;28;20069;-72
2023/08/08 12:17:38;;;;;;;3.45;1.92;;;21.40;99.90;;;;;;5108087;28;20028;-71
2023/08/08 12:20:09;;;;;;;5.85;1.83;;;21.30;99.90;;;;;;5093662;28;20366;-72
2023/08/08 12:22:35;;;;;;;48.60;8.02;;;21.50;99.90;;;;;;5100165;28;20023;-71
2023/08/08 12:25:02;;;;;;;15.50;3.97;;;21.50;99.90;;;;;;5114650;28;20095;-73
2023/08/08 12:27:29;;;;;;;12.35;3.33;;;21.20;99.90;;;;;;5110739;28;20028;-72
2023/08/08 12:29:54;;;;;;;54.03;7.82;;;21.10;99.90;;;;;;5093243;28;20024;-72
2023/08/08 12:32:24;;;;;;;46.58;6.40;;;20.90;99.90;;;;;;5093807;28;20508;-72
2023/08/08 12:34:50;;;;;;;5.00;1.70;;;20.80;99.90;;;;;;5093618;28;20016;-73
2023/08/08 12:37:16;;;;;;;5.03;1.95;;;21.10;99.90;;;;;;5093662;28;20020;-72
2023/08/08 12:39:42;;;;;;;3.28;1.88;;;21.50;99.90;;;;;;5093902;28;20020;-73